createdAt,value
2022-08-29T00:01:18.123Z,100480.78
2022-08-29T00:03:45.307Z,100483.06
2022-08-29T00:06:13.245Z,100482.03
2022-08-29T00:08:40.285Z,100475.41
2022-08-29T00:11:12.924Z,100477.72
2022-08-29T00:13:42.901Z,100475.53
2022-08-29T00:16:10.797Z,100471.66
2022-08-29T00:18:38.049Z,100483.06
2022-08-29T00:21:05.876Z,100470.97
2022-08-29T00:23:33.061Z,100465.56
2022-08-29T00:26:00.126Z,100472.34
2022-08-29T00:28:27.092Z,100475.34
2022-08-29T00:30:54.324Z,100471.78
2022-08-29T00:33:21.296Z,100472.25
2022-08-29T00:35:49.298Z,100468.28
2022-08-29T00:38:19.349Z,100473.38
2022-08-29T00:40:56.603Z,100478.41
2022-08-29T00:43:32.246Z,100469.91
2022-08-29T00:46:43.011Z,100479.69
2022-08-29T00:49:41.083Z,100476.38
2022-08-29T00:52:33.533Z,100480.06
2022-08-29T00:55:04.693Z,100487.69
2022-08-29T00:57:33.601Z,100489.41
2022-08-29T01:00:06.018Z,100491.41
2022-08-29T01:02:38.475Z,100488.97
2022-08-29T01:05:11.882Z,100488.53
2022-08-29T01:07:40.695Z,100499.41
2022-08-29T01:10:13.812Z,100492.97
2022-08-29T01:12:41.382Z,100497.66
2022-08-29T01:15:12.789Z,100491.41
2022-08-29T01:17:47.663Z,100497.03
2022-08-29T01:20:32.095Z,100491.66
2022-08-29T01:24:01.665Z,100498.28
2022-08-29T01:26:31.613Z,100505.09
2022-08-29T01:28:58.744Z,100498.91
2022-08-29T01:31:55.488Z,100507.59
2022-08-29T01:34:26.627Z,100504.16
2022-08-29T01:37:01.131Z,100503.44
2022-08-29T01:39:32.851Z,100509.78
2022-08-29T01:42:10.682Z,100493.75
2022-08-29T01:44:38.983Z,100506.41
2022-08-29T01:47:08.682Z,100508.13
2022-08-29T01:49:40.519Z,100518.91
2022-08-29T01:52:09.058Z,100508.31
2022-08-29T01:54:36.435Z,100508.59
2022-08-29T01:57:03.972Z,100509.22
2022-08-29T01:59:31.844Z,100511.00
2022-08-29T02:02:12.366Z,100516.19
2022-08-29T02:04:40.815Z,100528.31
2022-08-29T02:07:12.749Z,100523.06
2022-08-29T02:09:43.203Z,100526.25
2022-08-29T02:12:14.918Z,100522.19
2022-08-29T02:14:42.454Z,100523.50
2022-08-29T02:17:09.705Z,100523.19
2022-08-29T02:19:38.929Z,100519.28
2022-08-29T02:22:08.293Z,100525.81
2022-08-29T02:24:35.843Z,100523.25
2022-08-29T02:27:02.952Z,100523.47
2022-08-29T02:29:37.107Z,100534.34
2022-08-29T02:32:12.783Z,100534.34
2022-08-29T02:34:47.831Z,100518.84
2022-08-29T02:37:16.884Z,100529.56
2022-08-29T02:39:43.952Z,100527.34
2022-08-29T02:42:11.073Z,100530.03
2022-08-29T02:44:38.239Z,100528.34
2022-08-29T02:47:05.468Z,100525.66
2022-08-29T02:49:32.488Z,100520.69
2022-08-29T02:51:59.607Z,100535.16
2022-08-29T02:54:26.652Z,100525.34
2022-08-29T02:56:53.634Z,100532.13
2022-08-29T02:59:20.570Z,100542.81
2022-08-29T03:01:47.587Z,100541.34
2022-08-29T03:04:14.577Z,100541.72
2022-08-29T03:06:41.785Z,100530.47
2022-08-29T03:09:09.883Z,100542.53
2022-08-29T03:11:36.885Z,100533.75
2022-08-29T03:14:04.343Z,100535.47
2022-08-29T03:16:32.479Z,100530.75
2022-08-29T03:18:59.411Z,100533.06
2022-08-29T03:21:27.975Z,100537.09
2022-08-29T03:23:56.681Z,100532.75
2022-08-29T03:26:25.335Z,100547.75
2022-08-29T03:28:52.529Z,100538.03
2022-08-29T03:31:19.775Z,100530.63
2022-08-29T03:33:46.728Z,100528.44
2022-08-29T03:36:14.581Z,100533.84
2022-08-29T03:38:43.754Z,100522.03
2022-08-29T03:41:11.362Z,100533.69
2022-08-29T03:43:38.509Z,100541.28
2022-08-29T03:46:05.936Z,100528.31
2022-08-29T03:48:33.786Z,100527.00
2022-08-29T03:51:01.043Z,100532.59
2022-08-29T03:53:28.095Z,100528.34
2022-08-29T03:55:55.250Z,100525.44
2022-08-29T03:58:22.223Z,100530.84
2022-08-29T04:00:49.611Z,100526.44
2022-08-29T04:03:17.108Z,100527.25
2022-08-29T04:05:44.214Z,100524.44
2022-08-29T04:08:11.324Z,100528.75
2022-08-29T04:10:39.404Z,100531.06
2022-08-29T04:13:08.460Z,100537.88
2022-08-29T04:15:43.500Z,100524.47
2022-08-29T04:18:12.049Z,100527.47
2022-08-29T04:20:44.984Z,100523.03
2022-08-29T04:23:14.700Z,100526.38
2022-08-29T04:25:44.265Z,100538.50
2022-08-29T04:28:14.733Z,100539.63
2022-08-29T04:30:51.777Z,100542.94
2022-08-29T04:33:23.393Z,100543.28
2022-08-29T04:35:52.139Z,100545.56
2022-08-29T04:38:19.812Z,100547.88
2022-08-29T04:40:47.615Z,100549.81
2022-08-29T04:43:14.874Z,100553.25
2022-08-29T04:45:42.832Z,100558.19
2022-08-29T04:48:10.911Z,100556.97
2022-08-29T04:50:38.318Z,100560.25
2022-08-29T04:53:05.883Z,100557.63
2022-08-29T04:55:33.102Z,100565.53
2022-08-29T04:58:01.906Z,100572.03
2022-08-29T05:00:31.188Z,100567.47
2022-08-29T05:02:58.609Z,100569.44
2022-08-29T05:05:25.938Z,100581.69
2022-08-29T05:07:53.748Z,100576.09
2022-08-29T05:10:22.527Z,100579.03
2022-08-29T05:12:49.991Z,100583.66
2022-08-29T05:15:17.847Z,100585.75
2022-08-29T05:17:45.056Z,100579.53
2022-08-29T05:20:12.930Z,100585.78
2022-08-29T05:22:42.090Z,100581.53
2022-08-29T05:25:17.276Z,100578.91
2022-08-29T05:27:46.071Z,100580.69
2022-08-29T05:30:13.708Z,100580.88
2022-08-29T05:32:40.666Z,100580.00
2022-08-29T05:35:08.224Z,100568.50
2022-08-29T05:37:35.395Z,100582.97
2022-08-29T05:40:04.109Z,100582.59
2022-08-29T05:42:31.159Z,100589.59
2022-08-29T05:44:58.612Z,100583.84
2022-08-29T05:47:25.643Z,100581.34
2022-08-29T05:49:52.718Z,100578.06
2022-08-29T05:52:21.556Z,100583.13
2022-08-29T05:54:50.131Z,100577.16
2022-08-29T05:57:22.719Z,100570.28
2022-08-29T05:59:52.665Z,100577.66
2022-08-29T06:02:21.631Z,100576.84
2022-08-29T06:04:49.310Z,100571.22
2022-08-29T06:07:16.698Z,100576.84
2022-08-29T06:09:44.623Z,100578.94
2022-08-29T06:12:16.007Z,100583.50
2022-08-29T06:14:50.650Z,100584.41
2022-08-29T06:17:18.435Z,100590.38
2022-08-29T06:19:45.403Z,100591.88
2022-08-29T06:22:13.079Z,100586.84
2022-08-29T06:24:40.341Z,100590.50
2022-08-29T06:27:13.417Z,100596.22
2022-08-29T06:29:43.169Z,100588.97
2022-08-29T06:32:12.204Z,100589.25
2022-08-29T06:34:39.796Z,100594.34
2022-08-29T06:37:10.936Z,100593.88
2022-08-29T06:39:37.905Z,100596.41
2022-08-29T06:42:04.974Z,100601.00
2022-08-29T06:44:32.155Z,100599.81
2022-08-29T06:46:59.606Z,100614.00
2022-08-29T06:49:27.619Z,100605.75
2022-08-29T06:51:58.034Z,100603.47
2022-08-29T06:54:28.778Z,100588.66
2022-08-29T06:56:57.738Z,100597.41
2022-08-29T06:59:25.761Z,100590.31
2022-08-29T07:01:55.112Z,100604.75
2022-08-29T07:04:22.439Z,100606.91
2022-08-29T07:06:50.118Z,100597.13
2022-08-29T07:09:17.274Z,100594.03
2022-08-29T07:11:44.657Z,100603.72
2022-08-29T07:14:13.025Z,100595.38
2022-08-29T07:16:42.570Z,100591.28
2022-08-29T07:19:10.406Z,100590.25
2022-08-29T07:21:40.704Z,100593.25
2022-08-29T07:24:08.363Z,100598.13
2022-08-29T07:26:42.149Z,100596.81
2022-08-29T07:29:15.849Z,100602.78
2022-08-29T07:31:42.901Z,100594.03
2022-08-29T07:34:10.068Z,100594.25
2022-08-29T07:36:38.047Z,100595.97
2022-08-29T07:39:11.038Z,100599.00
2022-08-29T07:41:39.976Z,100590.66
2022-08-29T07:44:08.386Z,100594.53
2022-08-29T07:46:36.112Z,100592.31
2022-08-29T07:49:03.935Z,100594.81
2022-08-29T07:51:31.967Z,100594.03
2022-08-29T07:54:00.298Z,100597.34
2022-08-29T07:56:39.705Z,100587.19
2022-08-29T07:59:07.498Z,100591.94
2022-08-29T08:01:36.211Z,100601.66
2022-08-29T08:04:04.429Z,100591.16
2022-08-29T08:06:31.646Z,100594.25
2022-08-29T08:09:01.727Z,100597.13
2022-08-29T08:11:28.850Z,100598.88
2022-08-29T08:13:57.633Z,100592.00
2022-08-29T08:16:28.391Z,100584.50
2022-08-29T08:18:56.480Z,100598.50
2022-08-29T08:21:25.968Z,100591.56
2022-08-29T08:23:54.143Z,100592.41
2022-08-29T08:26:21.726Z,100597.31
2022-08-29T08:28:49.397Z,100595.69
2022-08-29T08:31:17.503Z,100595.66
2022-08-29T08:33:46.931Z,100597.72
2022-08-29T08:36:22.666Z,100610.91
2022-08-29T08:38:53.702Z,100611.94
2022-08-29T08:41:42.186Z,100604.00
2022-08-29T08:44:25.010Z,100600.31
2022-08-29T08:46:58.231Z,100597.03
2022-08-29T08:49:53.175Z,100594.44
2022-08-29T08:52:36.927Z,100593.38
2022-08-29T08:55:15.032Z,100595.72
2022-08-29T08:57:55.292Z,100607.56
2022-08-29T09:00:22.285Z,100601.47
2022-08-29T09:03:42.191Z,100587.91
2022-08-29T09:06:45.907Z,100605.31
2022-08-29T09:09:31.558Z,100601.09
2022-08-29T09:12:25.790Z,100599.59
2022-08-29T09:15:15.218Z,100598.59
2022-08-29T09:18:05.874Z,100595.63
2022-08-29T09:20:37.534Z,100598.50
2022-08-29T09:23:46.148Z,100595.91
2022-08-29T09:26:18.257Z,100601.22
2022-08-29T09:28:45.395Z,100597.97
2022-08-29T09:31:33.555Z,100595.13
2022-08-29T09:34:08.128Z,100590.53
2022-08-29T09:36:51.338Z,100593.34
2022-08-29T09:39:28.538Z,100597.13
2022-08-29T09:42:21.731Z,100589.47
2022-08-29T09:44:57.128Z,100582.72
2022-08-29T09:47:32.943Z,100580.56
2022-08-29T09:50:24.888Z,100587.69
2022-08-29T09:53:16.606Z,100584.22
2022-08-29T09:55:52.203Z,100578.56
2022-08-29T09:58:22.492Z,100579.59
2022-08-29T10:01:02.050Z,100570.53
2022-08-29T10:03:52.181Z,100578.09
2022-08-29T10:06:45.178Z,100585.19
2022-08-29T10:09:34.938Z,100571.34
2022-08-29T10:12:12.497Z,100563.59
2022-08-29T10:14:57.604Z,100555.72
2022-08-29T10:17:56.581Z,100555.13
2022-08-29T10:21:04.429Z,100559.06
2022-08-29T10:24:04.152Z,100548.19
2022-08-29T10:27:15.902Z,100543.09
2022-08-29T10:29:58.090Z,100544.31
2022-08-29T10:33:38.997Z,100547.53
2022-08-29T10:36:57.318Z,100538.59
2022-08-29T10:40:02.788Z,100535.75
2022-08-29T10:42:34.600Z,100535.19
2022-08-29T10:45:27.085Z,100519.16
2022-08-29T10:48:12.299Z,100528.19
2022-08-29T10:50:58.649Z,100526.63
2022-08-29T10:53:35.127Z,100520.47
2022-08-29T10:56:20.248Z,100521.53
2022-08-29T10:58:59.171Z,100520.78
2022-08-29T11:01:52.173Z,100524.41
2022-08-29T11:04:28.249Z,100509.38
2022-08-29T11:07:12.193Z,100515.66
2022-08-29T11:10:17.763Z,100499.59
2022-08-29T11:12:57.327Z,100500.00
2022-08-29T11:15:48.672Z,100490.63
2022-08-29T11:18:27.137Z,100497.50
2022-08-29T11:21:13.999Z,100481.41
2022-08-29T11:23:48.915Z,100478.66
2022-08-29T11:26:22.277Z,100476.06
2022-08-29T11:29:27.166Z,100483.59
2022-08-29T11:32:11.293Z,100484.41
2022-08-29T11:35:08.849Z,100475.34
2022-08-29T11:38:18.899Z,100464.69
2022-08-29T11:41:28.912Z,100462.84
2022-08-29T11:44:09.971Z,100464.00
2022-08-29T11:46:49.431Z,100462.44
2022-08-29T11:49:26.630Z,100462.38
2022-08-29T11:52:24.395Z,100450.94
2022-08-29T11:55:24.219Z,100452.66
2022-08-29T11:58:00.408Z,100450.81
2022-08-29T12:00:56.420Z,100440.13
2022-08-29T12:03:45.171Z,100434.22
2022-08-29T12:06:20.400Z,100434.34
2022-08-29T12:09:01.709Z,100440.06
2022-08-29T12:11:58.918Z,100434.34
2022-08-29T12:14:52.644Z,100431.16
2022-08-29T12:17:20.019Z,100433.78
2022-08-29T12:19:57.251Z,100434.06
2022-08-29T12:22:51.914Z,100440.94
2022-08-29T12:25:27.832Z,100444.66
2022-08-29T12:28:21.033Z,100436.84
2022-08-29T12:32:02.205Z,100440.13
2022-08-29T12:35:25.128Z,100434.38
2022-08-29T12:38:33.348Z,100408.69
2022-08-29T12:41:28.991Z,100411.78
2022-08-29T12:44:03.949Z,100410.72
2022-08-29T12:46:43.977Z,100419.28
2022-08-29T12:49:31.087Z,100398.78
2022-08-29T12:52:04.535Z,100394.97
2022-08-29T12:54:32.943Z,100388.34
2022-08-29T12:57:01.807Z,100401.44
2022-08-29T12:59:29.760Z,100397.91
2022-08-29T13:01:58.857Z,100397.84
2022-08-29T13:04:33.867Z,100399.84
2022-08-29T13:07:08.219Z,100381.06
2022-08-29T13:09:41.325Z,100385.09
2022-08-29T13:12:27.368Z,100383.06
2022-08-29T13:14:57.193Z,100385.84
2022-08-29T13:17:39.719Z,100378.88
2022-08-29T13:20:46.280Z,100375.66
2022-08-29T13:23:23.205Z,100377.81
2022-08-29T13:26:17.876Z,100371.00
2022-08-29T13:28:58.272Z,100378.78
2022-08-29T13:31:38.317Z,100378.91
2022-08-29T13:34:17.819Z,100376.56
2022-08-29T13:37:01.117Z,100358.81
2022-08-29T13:39:43.677Z,100369.81
2022-08-29T13:42:18.130Z,100364.97
2022-08-29T13:44:45.061Z,100357.81
2022-08-29T13:47:25.851Z,100343.78
2022-08-29T13:50:02.983Z,100346.63
2022-08-29T13:52:31.750Z,100348.06
2022-08-29T13:54:59.692Z,100357.63
2022-08-29T13:57:31.669Z,100360.75
2022-08-29T13:59:59.329Z,100356.97
2022-08-29T14:02:27.885Z,100351.31
2022-08-29T14:04:55.108Z,100351.31
2022-08-29T14:07:30.192Z,100339.06
2022-08-29T14:09:58.063Z,100345.97
2022-08-29T14:12:33.062Z,100345.22
2022-08-29T14:15:05.370Z,100336.31
2022-08-29T14:17:40.363Z,100340.13
2022-08-29T14:20:12.562Z,100328.69
2022-08-29T14:22:40.070Z,100336.13
2022-08-29T14:25:09.899Z,100324.69
2022-08-29T14:27:38.734Z,100315.81
2022-08-29T14:30:09.267Z,100326.47
2022-08-29T14:32:36.962Z,100315.34
2022-08-29T14:35:05.710Z,100308.00
2022-08-29T14:37:33.577Z,100302.13
2022-08-29T14:40:00.698Z,100301.28
2022-08-29T14:42:28.403Z,100295.09
2022-08-29T14:44:55.424Z,100308.22
2022-08-29T14:47:22.767Z,100294.97
2022-08-29T14:49:49.784Z,100304.00
2022-08-29T14:52:17.024Z,100295.47
2022-08-29T14:54:44.112Z,100297.03
2022-08-29T14:57:12.288Z,100293.41
2022-08-29T14:59:41.559Z,100291.31
2022-08-29T15:02:10.037Z,100288.50
2022-08-29T15:04:37.959Z,100285.47
2022-08-29T15:07:12.193Z,100288.22
2022-08-29T15:09:41.904Z,100281.78
2022-08-29T15:12:09.750Z,100284.41
2022-08-29T15:14:37.312Z,100288.97
2022-08-29T15:17:06.330Z,100285.66
2022-08-29T15:22:22.765Z,100282.31
2022-08-29T15:24:52.002Z,100285.09
2022-08-29T15:27:26.811Z,100284.06
2022-08-29T15:29:55.690Z,100271.34
2022-08-29T15:32:22.879Z,100264.59
2022-08-29T15:34:51.355Z,100262.50
2022-08-29T15:37:18.774Z,100260.56
2022-08-29T15:39:45.823Z,100266.53
2022-08-29T15:42:16.118Z,100265.44
2022-08-29T15:44:44.747Z,100267.19
2022-08-29T15:47:12.128Z,100266.66
2022-08-29T15:49:40.130Z,100266.53
2022-08-29T15:52:07.733Z,100257.50
2022-08-29T15:54:36.052Z,100257.69
2022-08-29T15:57:03.877Z,100263.03
2022-08-29T15:59:56.715Z,100264.66
2022-08-29T16:02:18.579Z,100261.00
2022-08-29T16:04:47.722Z,100258.97
2022-08-29T16:07:17.657Z,100253.97
2022-08-29T16:09:45.260Z,100250.41
2022-08-29T16:12:12.424Z,100248.63
2022-08-29T16:14:58.963Z,100250.19
2022-08-29T16:17:29.826Z,100243.91
2022-08-29T16:19:58.309Z,100246.78
2022-08-29T16:22:27.679Z,100229.31
2022-08-29T16:24:55.550Z,100236.75
2022-08-29T16:27:24.182Z,100241.34
2022-08-29T16:29:53.528Z,100225.25
2022-08-29T16:32:21.158Z,100234.41
2022-08-29T16:34:48.175Z,100235.44
2022-08-29T16:37:15.698Z,100235.44
2022-08-29T16:39:43.012Z,100228.63
2022-08-29T16:42:12.127Z,100222.06
2022-08-29T16:44:40.111Z,100230.53
2022-08-29T16:47:07.155Z,100234.94
2022-08-29T16:49:34.611Z,100232.78
2022-08-29T16:52:03.072Z,100223.03
2022-08-29T16:54:30.131Z,100236.25
2022-08-29T16:56:57.506Z,100239.94
2022-08-29T16:59:24.583Z,100242.63
2022-08-29T17:01:53.852Z,100247.16
2022-08-29T17:04:27.652Z,100246.28
2022-08-29T17:06:55.544Z,100249.19
2022-08-29T17:09:24.935Z,100241.34
2022-08-29T17:11:53.655Z,100239.72
2022-08-29T17:14:22.624Z,100237.81
2022-08-29T17:16:51.969Z,100244.00
2022-08-29T17:19:21.367Z,100237.09
2022-08-29T17:21:48.652Z,100250.72
2022-08-29T17:24:16.496Z,100247.78
2022-08-29T17:26:46.743Z,100253.44
2022-08-29T17:29:15.558Z,100248.38
2022-08-29T17:31:42.694Z,100251.53
2022-08-29T17:34:10.558Z,100253.66
2022-08-29T17:36:40.699Z,100266.69
2022-08-29T17:39:08.618Z,100255.13
2022-08-29T17:41:37.183Z,100254.34
2022-08-29T17:44:07.281Z,100256.16
2022-08-29T17:46:35.259Z,100260.16
2022-08-29T17:49:07.626Z,100264.25
2022-08-29T17:51:36.238Z,100265.38
2022-08-29T17:54:08.287Z,100271.75
2022-08-29T17:56:48.690Z,100276.81
2022-08-29T17:59:18.027Z,100288.06
2022-08-29T18:01:45.625Z,100288.00
2022-08-29T18:04:12.862Z,100302.03
2022-08-29T18:06:40.696Z,100294.91
2022-08-29T18:09:08.943Z,100293.72
2022-08-29T18:11:42.678Z,100305.19
2022-08-29T18:14:10.225Z,100298.47
2022-08-29T18:16:37.617Z,100304.03
2022-08-29T18:19:05.653Z,100300.56
2022-08-29T18:21:33.391Z,100308.06
2022-08-29T18:24:00.763Z,100300.00
2022-08-29T18:26:28.242Z,100310.50
2022-08-29T18:28:55.699Z,100311.94
2022-08-29T18:31:23.566Z,100307.72
2022-08-29T18:34:06.174Z,100303.06
2022-08-29T18:36:36.556Z,100310.25
2022-08-29T18:39:05.593Z,100314.72
2022-08-29T18:41:33.331Z,100319.44
2022-08-29T18:44:00.484Z,100322.41
2022-08-29T18:46:28.921Z,100323.03
2022-08-29T18:48:56.333Z,100323.31
2022-08-29T18:51:23.318Z,100329.28
2022-08-29T18:53:50.516Z,100326.84
2022-08-29T18:56:17.723Z,100332.47
2022-08-29T18:58:44.718Z,100337.97
2022-08-29T19:01:26.934Z,100343.53
2022-08-29T19:03:57.697Z,100346.63
2022-08-29T19:06:25.929Z,100344.91
2022-08-29T19:08:56.992Z,100351.09
2022-08-29T19:11:26.170Z,100351.59
2022-08-29T19:13:54.363Z,100347.41
2022-08-29T19:16:22.618Z,100355.59
2022-08-29T19:18:50.939Z,100355.75
2022-08-29T19:21:18.763Z,100357.59
2022-08-29T19:23:52.457Z,100357.34
2022-08-29T19:26:30.889Z,100365.88
2022-08-29T19:29:01.950Z,100366.16
2022-08-29T19:31:29.523Z,100371.34
2022-08-29T19:33:58.432Z,100364.41
2022-08-29T19:36:26.129Z,100370.78
2022-08-29T19:38:53.394Z,100368.13
2022-08-29T19:41:20.646Z,100385.94
2022-08-29T19:43:47.698Z,100382.91
2022-08-29T19:46:20.771Z,100377.47
2022-08-29T19:48:51.511Z,100385.09
2022-08-29T19:51:24.997Z,100382.34
2022-08-29T19:53:53.801Z,100393.09
2022-08-29T19:56:20.949Z,100398.69
2022-08-29T19:58:49.440Z,100401.56
2022-08-29T20:01:17.369Z,100397.16
2022-08-29T20:03:44.777Z,100404.22
2022-08-29T20:06:12.273Z,100399.75
2022-08-29T20:08:48.371Z,100389.28
2022-08-29T20:11:21.272Z,100400.38
2022-08-29T20:13:51.448Z,100407.06
2022-08-29T20:16:22.731Z,100408.38
2022-08-29T20:18:50.959Z,100409.19
2022-08-29T20:21:19.672Z,100404.66
2022-08-29T20:23:49.634Z,100413.25
2022-08-29T20:26:22.050Z,100419.06
2022-08-29T20:28:51.762Z,100417.47
2022-08-29T20:31:20.592Z,100427.03
2022-08-29T20:33:48.900Z,100429.75
2022-08-29T20:36:38.502Z,100423.78
2022-08-29T20:39:08.399Z,100420.94
2022-08-29T20:41:35.418Z,100425.06
2022-08-29T20:44:07.005Z,100426.69
2022-08-29T20:46:41.321Z,100433.78
2022-08-29T20:49:10.132Z,100429.34
2022-08-29T20:51:37.783Z,100429.13
2022-08-29T20:54:06.400Z,100436.66
2022-08-29T20:56:33.349Z,100427.72
2022-08-29T20:59:00.327Z,100435.84
2022-08-29T21:01:27.594Z,100439.50
2022-08-29T21:04:12.930Z,100442.72
2022-08-29T21:06:39.958Z,100442.72
2022-08-29T21:09:08.060Z,100449.59
2022-08-29T21:11:35.264Z,100441.31
2022-08-29T21:14:02.267Z,100446.16
2022-08-29T21:16:29.580Z,100447.59
2022-08-29T21:18:56.664Z,100453.47
2022-08-29T21:21:25.087Z,100454.50
2022-08-29T21:23:53.355Z,100465.84
2022-08-29T21:26:20.591Z,100464.59
2022-08-29T21:28:47.635Z,100472.31
2022-08-29T21:31:15.482Z,100459.34
2022-08-29T21:33:45.330Z,100467.88
2022-08-29T21:36:25.769Z,100459.97
2022-08-29T21:38:56.361Z,100465.84
2022-08-29T21:41:24.668Z,100468.69
2022-08-29T21:43:52.983Z,100470.34
2022-08-29T21:46:32.807Z,100473.72
2022-08-29T21:49:04.095Z,100469.69
2022-08-29T21:51:32.492Z,100472.13
2022-08-29T21:54:00.115Z,100469.09
2022-08-29T21:56:29.937Z,100467.28
2022-08-29T21:58:57.395Z,100461.00
2022-08-29T22:01:33.647Z,100463.25
2022-08-29T22:04:02.690Z,100459.78
2022-08-29T22:06:30.040Z,100467.91
2022-08-29T22:08:57.702Z,100461.81
2022-08-29T22:11:37.074Z,100472.00
2022-08-29T22:14:06.041Z,100472.19
2022-08-29T22:16:33.391Z,100472.19
2022-08-29T22:19:16.608Z,100471.22
2022-08-29T22:21:51.876Z,100475.44
2022-08-29T22:24:19.258Z,100472.44
2022-08-29T22:26:46.979Z,100485.38
2022-08-29T22:29:15.838Z,100483.16
2022-08-29T22:31:44.683Z,100492.31
2022-08-29T22:34:14.385Z,100490.06
2022-08-29T22:36:41.498Z,100500.00
2022-08-29T22:39:09.572Z,100507.16
2022-08-29T22:41:37.072Z,100521.50
2022-08-29T22:46:52.907Z,100513.47
2022-08-29T22:49:20.030Z,100497.84
2022-08-29T22:51:48.184Z,100487.16
2022-08-29T22:54:33.465Z,100475.78
2022-08-29T22:57:02.510Z,100481.91
2022-08-29T22:59:29.517Z,100483.56
2022-08-29T23:01:56.871Z,100475.41
2022-08-29T23:04:23.902Z,100465.09
2022-08-29T23:06:51.339Z,100458.94
2022-08-29T23:09:18.329Z,100461.38
2022-08-29T23:11:45.517Z,100470.84
2022-08-29T23:14:14.894Z,100464.00
2022-08-29T23:16:42.420Z,100467.19
2022-08-29T23:19:09.561Z,100467.38
2022-08-29T23:21:39.661Z,100466.03
2022-08-29T23:24:08.604Z,100468.97
2022-08-29T23:26:35.781Z,100468.28
2022-08-29T23:29:03.311Z,100462.63
2022-08-29T23:31:30.479Z,100464.56
2022-08-29T23:33:57.576Z,100469.84
2022-08-29T23:36:24.569Z,100478.66
2022-08-29T23:38:52.568Z,100479.19
2022-08-29T23:41:20.160Z,100485.63
2022-08-29T23:43:47.148Z,100494.53
2022-08-29T23:46:14.698Z,100498.25
2022-08-29T23:48:41.660Z,100498.38
2022-08-29T23:51:11.521Z,100493.78
2022-08-29T23:53:38.918Z,100498.53
2022-08-29T23:56:17.235Z,100492.31
2022-08-29T23:58:44.728Z,100494.75
